This is the latest recevied weather packets stored in our database for station/object SP3PDK-1. If no packets are shown the sender has not sent any weather packets the latest 10 day(s).
| Time | Temp. | Humidity | Pressure | Rain* | Wind** | Luminosity | Snow |
|---|---|---|---|---|---|---|---|
| 1777769058 | 15.56° C | 46% | 1016.6 hPa | - | - | - | - |
| 1777768458 | 15.56° C | 47% | 1016.6 hPa | - | - | - | - |
| 1777767855 | 16.11° C | 46% | 1016.6 hPa | - | - | - | - |
| 1777767255 | 16.11° C | 47% | 1016.6 hPa | - | - | - | - |
| 1777766053 | 15.56° C | 49% | 1016.8 hPa | - | - | - | - |
| 1777765454 | 15.56° C | 48% | 1016.8 hPa | - | - | - | - |
| 1777764858 | 15.56° C | 48% | 1017 hPa | - | - | - | - |
| 1777764257 | 16.11° C | 45% | 1016.9 hPa | - | - | - | - |
| 1777763658 | 16.11° C | 44% | 1017 hPa | - | - | - | - |
| 1777763054 | 16.67° C | 43% | 1017 hPa | - | - | - | - |
| 1777762458 | 16.67° C | 43% | 1017.1 hPa | - | - | - | - |
| 1777761853 | 16.67° C | 42% | 1017.2 hPa | - | - | - | - |
| 1777761255 | 16.67° C | 43% | 1017.3 hPa | - | - | - | - |
| 1777760654 | 16.67° C | 43% | 1017.4 hPa | - | - | - | - |
| 1777760054 | 17.22° C | 43% | 1017.3 hPa | - | - | - | - |
| 1777759454 | 17.22° C | 43% | 1017.3 hPa | - | - | - | - |
| 1777758854 | 17.22° C | 42% | 1017.4 hPa | - | - | - | - |
| 1777758259 | 17.78° C | 42% | 1017.4 hPa | - | - | - | - |
| 1777757658 | 17.78° C | 41% | 1017.4 hPa | - | - | - | - |
| 1777757054 | 18.33° C | 39% | 1017.4 hPa | - | - | - | - |
| 1777756458 | 18.89° C | 38% | 1017.6 hPa | - | - | - | - |
| 1777755857 | 18.89° C | 38% | 1017.7 hPa | - | - | - | - |
| 1777755254 | 18.89° C | 38% | 1017.6 hPa | - | - | - | - |
| 1777754654 | 18.89° C | 38% | 1017.7 hPa | - | - | - | - |
| 1777754053 | 19.44° C | 37% | 1017.7 hPa | - | - | - | - |
* Rain since midnight (hover to see other rain measurements)
** Current wind speed in m/s (hover to see current wind gust speed)